createdAt,value
2023-05-24T00:01:51.417Z,38.00
2023-05-24T00:04:18.724Z,38.00
2023-05-24T00:06:45.868Z,38.00
2023-05-24T00:09:12.903Z,38.00
2023-05-24T00:11:39.922Z,38.50
2023-05-24T00:14:06.991Z,38.00
2023-05-24T00:16:33.893Z,36.75
2023-05-24T00:19:01.135Z,38.50
2023-05-24T00:21:28.106Z,38.00
2023-05-24T00:23:55.147Z,39.25
2023-05-24T00:26:22.176Z,40.00
2023-05-24T00:28:55.538Z,39.00
2023-05-24T00:31:22.560Z,40.00
2023-05-24T00:33:49.597Z,40.00
2023-05-24T00:36:18.872Z,40.00
2023-05-24T00:38:48.008Z,39.00
2023-05-24T00:41:16.812Z,39.50
2023-05-24T00:43:43.831Z,38.50
2023-05-24T00:46:28.980Z,39.00
2023-05-24T00:48:57.115Z,39.25
2023-05-24T00:51:24.993Z,39.00
2023-05-24T00:53:52.205Z,38.50
2023-05-24T00:56:19.163Z,39.00
2023-05-24T00:58:47.124Z,39.00
2023-05-24T01:01:14.116Z,40.00
2023-05-24T01:03:41.198Z,39.00
2023-05-24T01:06:09.242Z,38.50
2023-05-24T01:08:39.320Z,39.00
2023-05-24T01:11:15.136Z,39.00
2023-05-24T01:14:31.516Z,39.00
2023-05-24T01:17:14.949Z,39.00
2023-05-24T01:19:56.991Z,39.00
2023-05-24T01:22:51.253Z,39.00
2023-05-24T01:25:27.214Z,38.50
2023-05-24T01:27:54.894Z,40.00
2023-05-24T01:30:26.521Z,38.50
2023-05-24T01:32:56.466Z,39.00
2023-05-24T01:35:23.563Z,39.50
2023-05-24T01:37:50.561Z,40.00
2023-05-24T01:40:17.748Z,39.25
2023-05-24T01:43:03.896Z,39.00
2023-05-24T01:45:50.510Z,39.25
2023-05-24T01:48:43.077Z,40.00
2023-05-24T01:51:16.100Z,39.25
2023-05-24T01:53:46.818Z,39.00
2023-05-24T01:56:15.937Z,39.00
2023-05-24T01:58:45.548Z,39.00
2023-05-24T02:01:14.627Z,40.00
2023-05-24T02:03:41.754Z,42.00
2023-05-24T02:06:08.629Z,42.00
2023-05-24T02:08:35.583Z,41.00
2023-05-24T02:11:02.697Z,40.00
2023-05-24T02:13:29.640Z,39.50
2023-05-24T02:15:56.593Z,39.50
2023-05-24T02:18:25.804Z,41.00
2023-05-24T02:20:53.467Z,40.00
2023-05-24T02:23:20.397Z,41.00
2023-05-24T02:25:47.278Z,40.00
2023-05-24T02:28:14.176Z,40.00
2023-05-24T02:30:41.396Z,39.00
2023-05-24T02:33:08.663Z,39.00
2023-05-24T02:35:35.656Z,40.00
2023-05-24T02:38:02.620Z,41.25
2023-05-24T02:40:29.553Z,41.00
2023-05-24T02:42:56.463Z,40.50
2023-05-24T02:45:23.572Z,41.00
2023-05-24T02:47:50.489Z,41.00
2023-05-24T02:50:17.607Z,41.00
2023-05-24T02:52:44.519Z,42.00
2023-05-24T02:55:11.638Z,42.00
2023-05-24T02:57:38.882Z,42.00
2023-05-24T03:00:06.683Z,42.50
2023-05-24T03:02:33.995Z,42.50
2023-05-24T03:05:01.407Z,44.00
2023-05-24T03:07:29.608Z,44.50
2023-05-24T03:09:56.472Z,43.00
2023-05-24T03:12:23.428Z,43.00
2023-05-24T03:14:51.019Z,44.75
2023-05-24T03:17:17.963Z,45.00
2023-05-24T03:19:44.978Z,44.00
2023-05-24T03:22:13.120Z,44.00
2023-05-24T03:24:40.167Z,45.25
2023-05-24T03:27:08.007Z,45.00
2023-05-24T03:29:34.995Z,46.00
2023-05-24T03:32:02.192Z,46.00
2023-05-24T03:34:29.173Z,46.00
2023-05-24T03:36:56.406Z,45.50
2023-05-24T03:39:23.416Z,47.50
2023-05-24T03:41:56.834Z,46.75
2023-05-24T03:44:23.813Z,46.00
2023-05-24T03:46:50.698Z,46.00
2023-05-24T03:49:17.748Z,45.50
2023-05-24T03:51:44.772Z,46.00
2023-05-24T03:54:11.817Z,45.00
2023-05-24T03:56:38.802Z,44.75
2023-05-24T03:59:05.867Z,45.00
2023-05-24T04:01:34.718Z,44.00
2023-05-24T04:04:03.527Z,45.00
2023-05-24T04:06:30.673Z,44.75
2023-05-24T04:09:00.290Z,46.00
2023-05-24T04:11:27.361Z,47.00
2023-05-24T04:13:55.411Z,47.00
2023-05-24T04:16:23.162Z,46.00
2023-05-24T04:18:54.146Z,45.00
2023-05-24T04:21:40.526Z,44.25
2023-05-24T04:24:07.674Z,46.00
2023-05-24T04:26:35.000Z,44.50
2023-05-24T04:29:01.952Z,45.00
2023-05-24T04:31:48.149Z,46.00
2023-05-24T04:34:15.224Z,44.50
2023-05-24T04:36:42.146Z,44.00
2023-05-24T04:39:11.475Z,44.00
2023-05-24T04:41:38.373Z,44.00
2023-05-24T04:44:05.480Z,43.50
2023-05-24T04:46:32.587Z,44.00
2023-05-24T04:48:59.523Z,44.00
2023-05-24T04:51:26.430Z,44.00
2023-05-24T04:53:53.585Z,44.00
2023-05-24T04:56:20.506Z,44.00
2023-05-24T04:58:48.246Z,43.00
2023-05-24T05:01:15.330Z,43.50
2023-05-24T05:03:42.453Z,44.00
2023-05-24T05:06:09.369Z,44.00
2023-05-24T05:08:36.327Z,43.75
2023-05-24T05:11:03.579Z,44.00
2023-05-24T05:13:30.681Z,44.00
2023-05-24T05:16:16.322Z,44.75
2023-05-24T05:18:43.394Z,45.50
2023-05-24T05:21:10.268Z,45.25
2023-05-24T05:23:37.309Z,45.00
2023-05-24T05:26:04.311Z,45.00
2023-05-24T05:28:31.396Z,44.75
2023-05-24T05:31:16.683Z,44.75
2023-05-24T05:33:43.658Z,45.00
2023-05-24T05:36:10.611Z,45.00
2023-05-24T05:38:37.654Z,45.00
2023-05-24T05:41:04.721Z,44.75
2023-05-24T05:43:34.410Z,43.00
2023-05-24T05:46:01.468Z,45.00
2023-05-24T05:48:28.490Z,45.50
2023-05-24T05:51:13.944Z,44.00
2023-05-24T05:53:40.872Z,43.00
2023-05-24T05:56:07.817Z,44.00
2023-05-24T05:58:53.296Z,44.00
2023-05-24T06:01:20.307Z,44.50
2023-05-24T06:03:47.323Z,45.00
2023-05-24T06:06:14.552Z,45.00
2023-05-24T06:08:41.461Z,45.00
2023-05-24T06:11:08.586Z,44.00
2023-05-24T06:13:54.229Z,45.00
2023-05-24T06:16:21.436Z,43.00
2023-05-24T06:19:01.326Z,43.50
2023-05-24T06:21:32.789Z,45.00
2023-05-24T06:24:19.097Z,44.50
2023-05-24T06:26:53.242Z,44.50
2023-05-24T06:29:20.530Z,45.00
2023-05-24T06:31:48.722Z,45.00
2023-05-24T06:34:34.430Z,45.00
2023-05-24T06:37:20.035Z,45.00
2023-05-24T06:39:47.227Z,44.25
2023-05-24T06:42:14.237Z,45.00
2023-05-24T06:44:45.907Z,46.00
2023-05-24T06:47:13.185Z,46.00
2023-05-24T06:49:40.140Z,45.00
2023-05-24T06:52:07.572Z,46.00
2023-05-24T06:54:34.885Z,46.00
2023-05-24T06:57:02.027Z,45.00
2023-05-24T06:59:28.973Z,44.50
2023-05-24T07:02:14.408Z,45.00
2023-05-24T07:04:41.508Z,45.25
2023-05-24T07:07:09.479Z,46.00
2023-05-24T07:09:36.459Z,45.00
2023-05-24T07:12:03.584Z,45.00
2023-05-24T07:14:30.843Z,46.00
2023-05-24T07:16:59.215Z,45.00
2023-05-24T07:19:26.196Z,46.00
2023-05-24T07:21:53.146Z,45.50
2023-05-24T07:24:20.150Z,46.00
2023-05-24T07:26:47.002Z,46.00
2023-05-24T07:29:13.916Z,46.00
2023-05-24T07:31:40.899Z,45.00
2023-05-24T07:34:08.034Z,46.00
2023-05-24T07:36:35.134Z,44.00
2023-05-24T07:39:02.604Z,46.00
2023-05-24T07:41:29.549Z,45.00
2023-05-24T07:43:56.627Z,44.50
2023-05-24T07:46:23.854Z,45.75
2023-05-24T07:48:50.996Z,46.00
2023-05-24T07:51:18.006Z,45.50
2023-05-24T07:53:45.029Z,45.50
2023-05-24T07:56:11.967Z,45.50
2023-05-24T07:58:38.966Z,45.50
2023-05-24T08:01:05.939Z,45.00
2023-05-24T08:03:35.056Z,44.00
2023-05-24T08:06:02.096Z,45.00
2023-05-24T08:08:29.096Z,44.00
2023-05-24T08:10:56.036Z,43.75
2023-05-24T08:13:23.176Z,43.50
2023-05-24T08:15:50.167Z,44.00
2023-05-24T08:18:17.229Z,45.50
2023-05-24T08:20:44.297Z,45.00
2023-05-24T08:23:11.503Z,45.50
2023-05-24T08:25:38.489Z,45.00
2023-05-24T08:28:05.581Z,44.50
2023-05-24T08:30:32.546Z,45.00
2023-05-24T08:32:59.623Z,46.00
2023-05-24T08:35:26.642Z,46.00
2023-05-24T08:37:53.696Z,46.00
2023-05-24T08:40:20.750Z,46.00
2023-05-24T08:42:49.635Z,46.00
2023-05-24T08:45:18.478Z,45.00
2023-05-24T08:47:47.678Z,44.25
2023-05-24T08:50:15.263Z,46.00
2023-05-24T08:52:43.757Z,46.00
2023-05-24T08:55:11.763Z,46.00
2023-05-24T08:57:40.017Z,45.00
2023-05-24T09:00:11.372Z,45.00
2023-05-24T09:02:40.383Z,47.00
2023-05-24T09:05:11.277Z,47.00
2023-05-24T09:07:38.872Z,45.00
2023-05-24T09:10:08.357Z,44.00
2023-05-24T09:12:39.034Z,43.50
2023-05-24T09:15:08.816Z,45.00
2023-05-24T09:17:37.763Z,44.75
2023-05-24T09:20:09.523Z,43.00
2023-05-24T09:22:40.832Z,44.50
2023-05-24T09:25:09.289Z,46.00
2023-05-24T09:27:36.346Z,46.00
2023-05-24T09:30:04.218Z,45.00
2023-05-24T09:32:31.686Z,45.00
2023-05-24T09:34:59.386Z,45.75
2023-05-24T09:37:31.788Z,45.50
2023-05-24T09:40:00.278Z,45.00
2023-05-24T09:42:27.879Z,44.00
2023-05-24T09:45:07.978Z,43.00
2023-05-24T09:47:42.453Z,44.50
2023-05-24T09:50:15.053Z,45.00
2023-05-24T09:52:42.298Z,45.00
2023-05-24T09:55:27.942Z,45.00
2023-05-24T09:58:13.468Z,43.00
2023-05-24T10:00:42.271Z,44.50
2023-05-24T10:03:11.509Z,44.00
2023-05-24T10:05:44.214Z,44.00
2023-05-24T10:08:12.419Z,44.50
2023-05-24T10:10:39.502Z,45.25
2023-05-24T10:13:06.550Z,45.00
2023-05-24T10:15:33.436Z,45.00
2023-05-24T10:18:00.470Z,43.50
2023-05-24T10:20:27.656Z,43.00
2023-05-24T10:23:07.815Z,43.00
2023-05-24T10:25:38.260Z,43.00
2023-05-24T10:28:10.137Z,44.50
2023-05-24T10:30:58.751Z,45.00
2023-05-24T10:33:26.518Z,45.00
2023-05-24T10:35:54.594Z,45.00
2023-05-24T10:38:23.670Z,45.00
2023-05-24T10:40:51.483Z,44.50
2023-05-24T10:43:18.741Z,45.00
2023-05-24T10:45:49.727Z,44.50
2023-05-24T10:48:16.738Z,43.00
2023-05-24T10:50:44.812Z,43.00
2023-05-24T10:53:14.401Z,42.75
2023-05-24T10:55:57.866Z,42.00
2023-05-24T10:58:57.140Z,42.25
2023-05-24T11:01:29.113Z,44.00
2023-05-24T11:04:12.789Z,44.50
2023-05-24T11:07:07.282Z,45.00
2023-05-24T11:09:34.360Z,45.50
2023-05-24T11:12:08.105Z,46.00
2023-05-24T11:14:40.092Z,44.00
2023-05-24T11:17:08.379Z,44.00
2023-05-24T11:19:45.736Z,43.00
2023-05-24T11:22:14.577Z,45.00
2023-05-24T11:24:42.640Z,45.00
2023-05-24T11:27:12.455Z,45.00
2023-05-24T11:29:47.534Z,45.00
2023-05-24T11:32:20.011Z,45.00
2023-05-24T11:34:47.906Z,45.00
2023-05-24T11:37:17.182Z,44.00
2023-05-24T11:39:50.995Z,44.50
2023-05-24T11:42:18.057Z,45.00
2023-05-24T11:44:48.432Z,46.00
2023-05-24T11:47:15.617Z,44.00
2023-05-24T11:49:42.560Z,45.00
2023-05-24T11:52:09.677Z,46.00
2023-05-24T11:54:36.697Z,45.00
2023-05-24T11:57:03.918Z,45.00
2023-05-24T11:59:30.929Z,44.50
2023-05-24T12:02:07.483Z,44.00
2023-05-24T12:04:35.197Z,45.00
2023-05-24T12:07:02.839Z,45.50
2023-05-24T12:09:30.051Z,45.00
2023-05-24T12:11:57.001Z,44.50
2023-05-24T12:14:33.095Z,44.00
2023-05-24T12:17:00.459Z,45.00
2023-05-24T12:19:33.868Z,44.00
2023-05-24T12:22:05.815Z,44.00
2023-05-24T12:24:32.887Z,43.00
2023-05-24T12:27:01.756Z,44.50
2023-05-24T12:29:37.176Z,43.50
2023-05-24T12:32:04.813Z,45.00
2023-05-24T12:34:32.849Z,45.00
2023-05-24T12:37:00.197Z,45.00
2023-05-24T12:39:30.799Z,44.00
2023-05-24T12:41:59.434Z,43.00
2023-05-24T12:44:34.963Z,44.00
2023-05-24T12:47:04.111Z,43.25
2023-05-24T12:49:31.727Z,44.50
2023-05-24T12:51:59.234Z,44.00
2023-05-24T12:54:27.986Z,44.75
2023-05-24T12:56:57.291Z,44.00
2023-05-24T12:59:26.182Z,43.00
2023-05-24T13:01:53.615Z,44.00
2023-05-24T13:04:22.962Z,45.00
2023-05-24T13:06:50.001Z,45.00
2023-05-24T13:09:17.151Z,44.00
2023-05-24T13:11:44.174Z,44.50
2023-05-24T13:14:11.110Z,43.50
2023-05-24T13:16:38.057Z,43.00
2023-05-24T13:19:05.078Z,43.25
2023-05-24T13:21:32.280Z,43.00
2023-05-24T13:23:59.245Z,44.50
2023-05-24T13:26:26.253Z,46.00
2023-05-24T13:29:26.723Z,46.00
2023-05-24T13:31:40.720Z,46.00
2023-05-24T13:34:08.488Z,47.00
2023-05-24T13:36:35.827Z,45.00
2023-05-24T13:39:14.886Z,45.00
2023-05-24T13:41:44.214Z,48.00
2023-05-24T13:44:15.435Z,46.00
2023-05-24T13:46:43.511Z,45.00
2023-05-24T13:49:11.488Z,44.00
2023-05-24T13:51:39.146Z,43.00
2023-05-24T13:54:06.531Z,44.00
2023-05-24T13:56:33.717Z,45.00
2023-05-24T13:59:02.088Z,46.00
2023-05-24T14:01:29.494Z,45.00
2023-05-24T14:03:56.469Z,44.00
2023-05-24T14:06:23.779Z,43.00
2023-05-24T14:08:50.680Z,42.50
2023-05-24T14:11:17.710Z,42.50
2023-05-24T14:16:14.908Z,43.00
2023-05-24T14:18:42.116Z,43.00
2023-05-24T14:21:09.360Z,43.00
2023-05-24T14:23:36.397Z,45.00
2023-05-24T14:26:03.627Z,45.00
2023-05-24T14:28:30.594Z,45.00
2023-05-24T14:30:57.738Z,45.00
2023-05-24T14:33:24.830Z,44.50
2023-05-24T14:35:52.055Z,44.00
2023-05-24T14:38:19.194Z,43.00
2023-05-24T14:40:46.470Z,43.00
2023-05-24T14:43:13.722Z,43.50
2023-05-24T14:45:41.240Z,44.00
2023-05-24T14:48:09.159Z,43.00
2023-05-24T14:50:36.320Z,42.00
2023-05-24T14:53:03.319Z,42.00
2023-05-24T14:55:30.320Z,42.00
2023-05-24T14:57:57.232Z,43.25
2023-05-24T15:00:26.267Z,61.25
2023-05-24T15:02:54.882Z,54.00
2023-05-24T15:05:21.857Z,48.75
2023-05-24T15:07:48.910Z,47.00
2023-05-24T15:10:16.261Z,46.00
2023-05-24T15:12:43.339Z,45.50
2023-05-24T15:15:10.896Z,45.00
2023-05-24T15:17:37.918Z,44.50
2023-05-24T15:20:05.284Z,45.00
2023-05-24T15:22:32.185Z,45.00
2023-05-24T15:24:59.179Z,44.00
2023-05-24T15:27:27.726Z,45.00
2023-05-24T15:29:54.877Z,46.00
2023-05-24T15:32:21.809Z,44.50
2023-05-24T15:34:48.695Z,44.50
2023-05-24T15:37:15.672Z,44.50
2023-05-24T15:39:42.656Z,43.50
2023-05-24T15:42:09.799Z,45.00
2023-05-24T15:44:36.823Z,45.00
2023-05-24T15:47:03.972Z,45.00
2023-05-24T15:49:31.126Z,43.00
2023-05-24T15:52:04.289Z,44.50
2023-05-24T15:54:32.265Z,45.00
2023-05-24T15:56:59.270Z,45.50
2023-05-24T15:59:26.284Z,44.00
2023-05-24T16:01:53.279Z,45.00
2023-05-24T16:04:20.559Z,45.00
2023-05-24T16:06:47.528Z,44.00
2023-05-24T16:09:14.620Z,44.50
2023-05-24T16:11:41.589Z,46.75
2023-05-24T16:14:08.620Z,47.00
2023-05-24T16:16:35.705Z,46.00
2023-05-24T16:19:02.784Z,45.00
2023-05-24T16:21:29.685Z,45.00
2023-05-24T16:23:56.660Z,45.00
2023-05-24T16:26:23.628Z,44.00
2023-05-24T16:28:50.769Z,44.00
2023-05-24T16:31:17.883Z,45.00
2023-05-24T16:33:45.068Z,44.00
2023-05-24T16:36:12.053Z,43.00
2023-05-24T16:38:39.230Z,43.00
2023-05-24T16:41:06.128Z,44.00
2023-05-24T16:43:33.257Z,43.00
2023-05-24T16:46:01.507Z,43.75
2023-05-24T16:48:28.970Z,44.00
2023-05-24T16:50:56.219Z,43.00
2023-05-24T16:53:24.116Z,43.00
2023-05-24T16:55:51.246Z,42.50
2023-05-24T16:58:18.217Z,42.00
2023-05-24T17:00:45.227Z,41.75
2023-05-24T17:03:12.397Z,41.00
2023-05-24T17:05:39.637Z,41.00
2023-05-24T17:08:06.890Z,41.00
2023-05-24T17:10:34.293Z,39.50
2023-05-24T17:13:01.243Z,40.00
2023-05-24T17:15:28.198Z,39.00
2023-05-24T17:17:55.824Z,38.50
2023-05-24T17:20:22.998Z,39.00
2023-05-24T17:22:50.106Z,40.00
2023-05-24T17:25:17.296Z,40.75
2023-05-24T17:27:44.278Z,41.50
2023-05-24T17:30:11.751Z,40.00
2023-05-24T17:32:38.775Z,40.00
2023-05-24T17:35:05.845Z,40.50
2023-05-24T17:37:32.811Z,40.00
2023-05-24T17:39:59.713Z,40.00
2023-05-24T17:42:26.705Z,38.25
2023-05-24T17:44:53.669Z,38.75
2023-05-24T17:47:20.674Z,40.00
2023-05-24T17:49:47.833Z,39.00
2023-05-24T17:52:14.915Z,40.00
2023-05-24T17:54:41.903Z,38.50
2023-05-24T17:57:08.972Z,40.25
2023-05-24T17:59:35.961Z,39.00
2023-05-24T18:02:03.674Z,39.00
2023-05-24T18:04:30.666Z,39.00
2023-05-24T18:06:57.710Z,43.00
2023-05-24T18:09:43.234Z,48.50
2023-05-24T18:12:28.975Z,48.00
2023-05-24T18:14:55.975Z,45.50
2023-05-24T18:17:41.694Z,41.75
2023-05-24T18:20:27.526Z,41.00
2023-05-24T18:22:54.523Z,39.50
2023-05-24T18:25:21.479Z,40.00
2023-05-24T18:27:48.582Z,40.75
2023-05-24T18:30:15.739Z,42.50
2023-05-24T18:32:56.019Z,40.00
2023-05-24T18:35:29.758Z,40.50
2023-05-24T18:37:56.715Z,39.25
2023-05-24T18:40:23.749Z,39.00
2023-05-24T18:42:51.400Z,41.50
2023-05-24T18:45:18.587Z,41.00
2023-05-24T18:47:45.587Z,39.75
2023-05-24T18:50:12.860Z,40.00
2023-05-24T18:52:39.871Z,39.00
2023-05-24T18:55:07.230Z,39.50
2023-05-24T18:57:52.931Z,40.00
2023-05-24T19:00:20.049Z,41.00
2023-05-24T19:02:47.100Z,41.00
2023-05-24T19:05:14.292Z,41.00
2023-05-24T19:07:41.416Z,41.00
2023-05-24T19:10:08.899Z,41.50
2023-05-24T19:12:36.004Z,40.50
2023-05-24T19:15:03.304Z,40.50
2023-05-24T19:17:30.289Z,41.00
2023-05-24T19:19:57.323Z,40.00
2023-05-24T19:22:24.198Z,39.50
2023-05-24T19:24:51.149Z,42.75
2023-05-24T19:27:18.120Z,41.00
2023-05-24T19:29:45.288Z,39.50
2023-05-24T19:32:12.352Z,39.00
2023-05-24T19:34:57.878Z,39.00
2023-05-24T19:37:24.929Z,38.50
2023-05-24T19:39:51.852Z,40.50
2023-05-24T19:42:18.886Z,39.00
2023-05-24T19:44:46.041Z,39.00
2023-05-24T19:47:13.093Z,39.00
2023-05-24T19:49:40.054Z,39.00
2023-05-24T19:52:07.185Z,39.00
2023-05-24T19:54:34.060Z,38.00
2023-05-24T19:57:01.165Z,39.75
2023-05-24T19:59:28.175Z,38.00
2023-05-24T20:01:55.458Z,40.00
2023-05-24T20:04:23.516Z,39.50
2023-05-24T20:06:52.849Z,39.00
2023-05-24T20:09:19.814Z,41.00
2023-05-24T20:11:46.735Z,40.00
2023-05-24T20:14:13.732Z,39.50
2023-05-24T20:16:40.844Z,39.00
2023-05-24T20:19:07.892Z,39.75
2023-05-24T20:21:34.863Z,40.00
2023-05-24T20:24:01.780Z,41.00
2023-05-24T20:26:28.740Z,41.00
2023-05-24T20:28:55.697Z,42.00
2023-05-24T20:31:22.830Z,40.00
2023-05-24T20:33:50.376Z,41.00
2023-05-24T20:36:17.551Z,42.50
2023-05-24T20:38:44.600Z,43.00
2023-05-24T20:41:26.361Z,42.00
2023-05-24T20:43:53.377Z,42.50
2023-05-24T20:46:20.364Z,42.50
2023-05-24T20:48:47.397Z,41.00
2023-05-24T20:51:14.431Z,41.25
2023-05-24T20:53:41.389Z,42.00
2023-05-24T20:56:08.388Z,40.75
2023-05-24T20:58:35.511Z,40.00
2023-05-24T21:01:02.495Z,41.50
2023-05-24T21:03:29.572Z,42.00
2023-05-24T21:05:56.688Z,41.00
2023-05-24T21:08:23.694Z,42.00
2023-05-24T21:10:50.577Z,42.00
2023-05-24T21:13:36.221Z,41.00
2023-05-24T21:16:03.264Z,41.00
2023-05-24T21:18:30.252Z,41.75
2023-05-24T21:20:57.277Z,42.00
2023-05-24T21:23:24.189Z,41.50
2023-05-24T21:25:51.751Z,42.25
2023-05-24T21:28:18.914Z,42.00
2023-05-24T21:30:45.968Z,40.50
2023-05-24T21:33:12.965Z,41.25
2023-05-24T21:35:40.110Z,42.00
2023-05-24T21:38:07.051Z,41.00
2023-05-24T21:40:34.062Z,42.00
2023-05-24T21:43:01.028Z,40.75
2023-05-24T21:45:28.072Z,42.00
2023-05-24T21:47:55.144Z,42.75
2023-05-24T21:50:22.780Z,42.00
2023-05-24T21:52:49.714Z,41.50
2023-05-24T21:55:16.940Z,41.00
2023-05-24T21:57:43.925Z,43.00
2023-05-24T22:00:11.697Z,42.50
2023-05-24T22:02:38.716Z,41.00
2023-05-24T22:05:05.932Z,42.00
2023-05-24T22:07:32.871Z,41.00
2023-05-24T22:09:59.778Z,41.00
2023-05-24T22:12:26.718Z,40.50
2023-05-24T22:14:53.759Z,42.00
2023-05-24T22:17:20.705Z,42.25
2023-05-24T22:19:48.288Z,43.00
2023-05-24T22:22:15.360Z,42.00
2023-05-24T22:24:42.386Z,41.00
2023-05-24T22:27:09.281Z,43.00
2023-05-24T22:29:36.279Z,42.00
2023-05-24T22:32:03.443Z,42.00
2023-05-24T22:34:31.092Z,40.00
2023-05-24T22:36:58.130Z,41.00
2023-05-24T22:39:25.508Z,39.50
2023-05-24T22:41:53.676Z,41.25
2023-05-24T22:44:20.819Z,42.50
2023-05-24T22:46:48.547Z,42.25
2023-05-24T22:49:16.446Z,43.00
2023-05-24T22:51:43.315Z,39.50
2023-05-24T22:54:11.529Z,41.00
2023-05-24T22:56:39.066Z,41.00
2023-05-24T22:59:06.746Z,41.50
2023-05-24T23:01:34.045Z,41.00
2023-05-24T23:04:15.873Z,42.00
2023-05-24T23:06:46.383Z,39.00
2023-05-24T23:09:13.436Z,40.00
2023-05-24T23:11:40.702Z,40.25
2023-05-24T23:14:07.643Z,41.00
2023-05-24T23:16:35.488Z,39.00
2023-05-24T23:19:02.474Z,40.00
2023-05-24T23:21:29.496Z,40.00
2023-05-24T23:23:56.479Z,40.00
2023-05-24T23:26:23.498Z,42.00
2023-05-24T23:28:58.927Z,41.00
2023-05-24T23:31:25.975Z,40.00
2023-05-24T23:33:52.941Z,41.75
2023-05-24T23:36:20.521Z,41.00
2023-05-24T23:38:47.434Z,41.25
2023-05-24T23:41:14.432Z,41.00
2023-05-24T23:43:41.397Z,41.25
2023-05-24T23:46:08.417Z,42.00
2023-05-24T23:48:35.314Z,41.00
2023-05-24T23:51:02.386Z,39.00
2023-05-24T23:53:29.376Z,40.25
2023-05-24T23:55:56.319Z,40.50
2023-05-24T23:58:23.232Z,40.00
